Time;durP1;ratioP1;P1;durP2;ratioP2;P2;SDS_P1;SDS_P2;PMS_P1;PMS_P2;Temp;Humidity;BMP_temperature;BMP_pressure;BME280_temperature;BME280_humidity;BME280_pressure;Samples;Min_cycle;Max_cycle;Signal;HPM_P1;HPM_P2
2023/05/11 00:02:17;;;;;;;0.90;0.90;;;;;;;13.67;74.66;96490.91;4900188;29;20063;-82
2023/05/11 00:04:45;;;;;;;1.63;0.80;;;;;;;13.64;74.59;96486.06;4899254;29;20052;-82
2023/05/11 00:07:12;;;;;;;1.60;1.00;;;;;;;13.59;72.86;96474.38;4899094;29;20063;-82
2023/05/11 00:09:41;;;;;;;1.73;0.80;;;;;;;13.64;76.94;96486.06;4896958;29;20135;-82
2023/05/11 00:12:09;;;;;;;0.90;0.90;;;;;;;13.66;78.40;96484.84;4897328;29;20056;-82
2023/05/11 00:14:36;;;;;;;1.63;0.68;;;;;;;13.71;79.49;96479.00;4912167;29;20059;-82
2023/05/11 00:17:04;;;;;;;1.13;1.00;;;;;;;13.73;78.97;96484.84;4916728;29;20053;-81
2023/05/11 00:19:32;;;;;;;2.38;1.00;;;;;;;13.67;74.40;96483.06;4916423;29;20135;-82
2023/05/11 00:22:00;;;;;;;2.35;0.93;;;;;;;13.65;75.46;96482.47;4911744;29;20052;-82
2023/05/11 00:24:28;;;;;;;2.72;1.00;;;;;;;13.63;75.19;96482.66;4899604;29;20048;-82
2023/05/11 00:26:57;;;;;;;2.42;0.75;;;;;;;13.60;72.64;96477.81;4899340;29;20049;-82
2023/05/11 00:29:25;;;;;;;1.73;1.05;;;;;;;13.60;75.61;96481.25;4899563;29;20441;-82
2023/05/11 00:31:53;;;;;;;3.08;0.90;;;;;;;13.65;76.68;96477.22;4898583;29;20052;-82
2023/05/11 00:34:20;;;;;;;0.60;0.60;;;;;;;13.65;76.60;96472.78;4898599;29;20044;-81
2023/05/11 00:36:48;;;;;;;1.60;0.90;;;;;;;13.66;76.89;96473.56;4898682;29;20045;-82
2023/05/11 00:39:17;;;;;;;1.02;0.98;;;;;;;13.68;78.05;96474.16;4898626;29;20048;-82
2023/05/11 00:41:44;;;;;;;0.80;0.80;;;;;;;13.67;78.51;96473.38;4898394;29;20489;-82
2023/05/11 00:44:14;;;;;;;1.88;1.00;;;;;;;13.63;74.00;96474.00;4898575;29;20490;-82
2023/05/11 00:46:42;;;;;;;1.38;0.80;;;;;;;13.66;77.94;96473.56;4898371;29;20056;-82
2023/05/11 00:49:09;;;;;;;1.35;0.95;;;;;;;13.69;78.66;96470.56;4898049;29;20048;-82
2023/05/11 00:51:38;;;;;;;1.50;0.80;;;;;;;13.69;76.05;96473.19;4906527;29;20052;-82
2023/05/11 00:54:11;;;;;;;1.10;0.93;;;;;;;13.68;76.99;96466.31;4914276;29;20049;-82
2023/05/11 00:56:39;;;;;;;1.73;1.05;;;;;;;13.62;73.71;96459.25;4908930;29;20462;-82
2023/05/11 00:59:07;;;;;;;3.70;1.08;;;;;;;13.61;75.27;96466.31;4899596;29;20108;-82
2023/05/11 01:01:38;;;;;;;1.92;0.82;;;;;;;13.65;77.31;96461.50;4897554;29;20049;-82
2023/05/11 01:04:06;;;;;;;1.05;0.82;;;;;;;13.67;77.87;96464.72;4898055;29;20079;-82
2023/05/11 01:06:43;;;;;;;0.70;0.60;;;;;;;13.66;77.46;96470.94;4898355;29;20056;-81
2023/05/11 01:09:24;;;;;;;1.13;0.80;;;;;;;13.68;79.64;96466.31;4897958;29;20049;-82
2023/05/11 01:12:00;;;;;;;1.10;1.00;;;;;;;13.68;78.59;96471.56;4898304;29;20048;-81
2023/05/11 01:14:34;;;;;;;0.68;0.68;;;;;;;13.70;78.90;96469.53;4897664;29;20057;-82
2023/05/11 01:17:10;;;;;;;1.40;1.25;;;;;;;13.70;80.02;96469.53;4898124;29;20052;-82
2023/05/11 01:19:43;;;;;;;1.40;1.15;;;;;;;13.66;76.46;96465.72;4897835;29;20428;-82
2023/05/11 01:22:27;;;;;;;2.30;0.70;;;;;;;13.63;75.89;96468.75;4898059;29;20148;-82
2023/05/11 01:25:09;;;;;;;1.08;0.65;;;;;;;13.64;79.71;96470.34;4897854;29;20056;-82
2023/05/11 01:27:56;;;;;;;2.10;0.85;;;;;;;13.64;73.96;96470.34;4898444;29;20048;-82
2023/05/11 01:30:35;;;;;;;0.73;0.63;;;;;;;13.63;78.50;96466.13;4898282;29;20394;-82
2023/05/11 01:33:09;;;;;;;0.80;0.60;;;;;;;13.63;78.92;96463.50;4898027;29;20064;-82
2023/05/11 01:35:41;;;;;;;0.50;0.50;;;;;;;13.63;78.04;96466.13;4897995;29;20063;-82
2023/05/11 01:38:12;;;;;;;0.80;0.68;;;;;;;13.64;78.17;96471.16;4898571;29;20139;-81
2023/05/11 01:40:43;;;;;;;0.70;0.70;;;;;;;13.65;78.45;96470.16;4902151;29;20059;-81
2023/05/11 01:43:15;;;;;;;1.85;0.70;;;;;;;13.65;78.15;96456.25;4902046;29;20048;-82
2023/05/11 01:45:47;;;;;;;0.75;0.70;;;;;;;13.66;78.27;96463.88;4901444;29;20064;-82
2023/05/11 01:48:22;;;;;;;0.65;0.63;;;;;;;13.69;79.01;96462.69;4901705;29;20067;-82
2023/05/11 01:50:51;;;;;;;0.60;0.60;;;;;;;13.70;79.24;96464.28;4901475;29;20060;-81
2023/05/11 01:53:19;;;;;;;1.08;0.80;;;;;;;13.70;79.18;96459.84;4901529;29;20095;-82
2023/05/11 01:55:49;;;;;;;0.60;0.60;;;;;;;13.70;79.22;96465.09;4901157;29;20088;-81
2023/05/11 01:58:18;;;;;;;0.55;0.55;;;;;;;13.67;78.11;96462.88;4901671;29;20060;-82
2023/05/11 02:00:48;;;;;;;0.70;0.70;;;;;;;13.66;78.19;96465.72;4901570;29;20057;-82
2023/05/11 02:03:16;;;;;;;2.28;0.50;;;;;;;13.66;77.67;96463.09;4901336;29;20068;-82
2023/05/11 02:05:45;;;;;;;0.57;0.57;;;;;;;13.60;74.81;96465.53;4900965;29;20088;-82
2023/05/11 02:08:14;;;;;;;0.45;0.45;;;;;;;13.56;73.26;96461.69;4901080;29;20056;-81
2023/05/11 02:10:43;;;;;;;0.90;0.50;;;;;;;13.56;76.48;96469.56;4900976;29;20059;-81
2023/05/11 02:13:11;;;;;;;1.67;0.73;;;;;;;13.53;75.73;96463.91;4900829;29;20402;-81
2023/05/11 02:15:42;;;;;;;2.25;0.60;;;;;;;13.49;73.78;96465.31;4900728;29;20059;-82
2023/05/11 02:18:14;;;;;;;2.05;0.80;;;;;;;13.47;75.32;96464.72;4900756;29;20128;-82
2023/05/11 02:20:43;;;;;;;3.92;1.00;;;;;;;13.53;77.62;96453.41;4900583;29;20080;-82
2023/05/11 02:23:12;;;;;;;1.67;1.00;;;;;;;13.54;75.63;96466.34;4900692;29;20524;-82
2023/05/11 02:25:40;;;;;;;0.63;0.63;;;;;;;13.57;76.96;96463.28;4900957;29;20056;-81
2023/05/11 02:28:08;;;;;;;0.63;0.63;;;;;;;13.56;75.62;96466.94;4900662;29;20052;-82
2023/05/11 02:30:41;;;;;;;0.85;0.80;;;;;;;13.56;76.12;96469.56;4900621;29;20056;-82
2023/05/11 02:33:12;;;;;;;0.63;0.63;;;;;;;13.58;76.51;96469.38;4900416;29;20048;-82
2023/05/11 02:35:43;;;;;;;1.02;0.93;;;;;;;13.58;77.47;96467.53;4900497;29;20057;-81
2023/05/11 02:38:13;;;;;;;0.70;0.70;;;;;;;13.58;77.55;96467.53;4901009;29;20048;-81
2023/05/11 02:40:45;;;;;;;0.65;0.45;;;;;;;13.60;77.52;96470.75;4900623;29;20428;-81
2023/05/11 02:43:18;;;;;;;0.60;0.60;;;;;;;13.60;77.89;96470.75;4900610;29;20053;-82
2023/05/11 02:45:48;;;;;;;0.60;0.60;;;;;;;13.60;77.36;96462.09;4900247;29;20056;-82
2023/05/11 02:48:22;;;;;;;1.33;0.60;;;;;;;13.60;78.33;96468.16;4900489;29;20075;-82
2023/05/11 02:50:54;;;;;;;0.60;0.60;;;;;;;13.58;77.88;96467.53;4900246;29;20057;-81
2023/05/11 02:53:27;;;;;;;1.58;0.60;;;;;;;13.59;78.40;96463.09;4900252;29;20406;-81
2023/05/11 02:55:55;;;;;;;2.28;1.23;;;;;;;13.60;77.89;96465.53;4900021;29;20044;-81
2023/05/11 02:58:23;;;;;;;0.98;0.63;;;;;;;13.61;78.33;96461.09;4900001;29;20063;-81
2023/05/11 03:00:50;;;;;;;1.10;0.75;;;;;;;13.62;77.87;96464.50;4900290;29;20119;-81
2023/05/11 03:03:18;;;;;;;2.97;0.73;;;;;;;13.63;77.21;96458.25;4900014;29;20538;-81
2023/05/11 03:05:46;;;;;;;0.60;0.60;;;;;;;13.59;77.01;96460.47;4899886;29;20048;-81
2023/05/11 03:08:15;;;;;;;0.70;0.70;;;;;;;13.58;77.77;96457.06;4899852;29;20500;-81
2023/05/11 03:10:43;;;;;;;0.88;0.85;;;;;;;13.57;77.68;96455.44;4899657;29;20053;-82
2023/05/11 03:13:10;;;;;;;2.85;1.02;;;;;;;13.54;75.47;96455.84;4899714;29;20048;-81
2023/05/11 03:15:39;;;;;;;1.17;1.10;;;;;;;13.54;76.43;96455.06;4899861;29;20084;-81
2023/05/11 03:18:08;;;;;;;1.35;1.25;;;;;;;13.52;76.82;96457.88;4900112;29;20052;-82
2023/05/11 03:20:38;;;;;;;1.08;1.08;;;;;;;13.54;78.27;96455.84;4899373;29;20060;-81
2023/05/11 03:23:07;;;;;;;2.50;1.33;;;;;;;13.57;79.01;96460.66;4899392;29;20056;-81
2023/05/11 03:25:36;;;;;;;1.13;0.95;;;;;;;13.58;78.85;96464.91;4899469;29;20064;-81
2023/05/11 03:28:05;;;;;;;0.77;0.77;;;;;;;13.57;78.19;96454.63;4899697;29;20060;-81
2023/05/11 03:30:33;;;;;;;1.17;1.08;;;;;;;13.55;78.55;96452.19;4899565;29;20057;-82
2023/05/11 03:33:01;;;;;;;0.73;0.73;;;;;;;13.53;77.67;96448.97;4899473;29;20417;-82
2023/05/11 03:35:31;;;;;;;0.75;0.75;;;;;;;13.53;76.65;96453.41;4899144;29;20059;-82
2023/05/11 03:37:59;;;;;;;1.05;0.80;;;;;;;13.51;76.95;96450.19;4899129;29;20052;-81
2023/05/11 03:40:28;;;;;;;2.42;0.90;;;;;;;13.52;77.79;96449.19;4899093;29;20080;-81
2023/05/11 03:42:59;;;;;;;1.02;0.90;;;;;;;13.51;77.07;96445.78;4899455;29;20060;-82
2023/05/11 03:45:30;;;;;;;1.38;0.98;;;;;;;13.52;77.58;96442.13;4901829;29;20521;-81
2023/05/11 03:47:59;;;;;;;1.20;1.05;;;;;;;13.51;78.63;96451.03;4885754;29;20061;-82
2023/05/11 03:50:29;;;;;;;1.42;1.00;;;;;;;13.52;78.92;96450.00;4888920;29;20656;-81
2023/05/11 03:52:57;;;;;;;5.40;1.42;;;;;;;13.51;78.73;96447.56;4883463;29;20056;-80
2023/05/11 03:55:25;;;;;;;1.52;1.15;;;;;;;13.50;78.87;96454.63;4901116;29;20064;-81
2023/05/11 03:57:53;;;;;;;1.60;0.95;;;;;;;13.42;76.61;96440.94;4894775;29;20133;-81
2023/05/11 04:00:23;;;;;;;1.40;1.10;;;;;;;13.39;78.82;96448.19;4883099;29;20057;-80
2023/05/11 04:02:52;;;;;;;1.30;1.10;;;;;;;13.43;79.71;96451.22;4881713;29;20049;-79
2023/05/11 04:05:19;;;;;;;1.67;1.10;;;;;;;13.40;77.97;96438.50;4903240;29;20053;-81
2023/05/11 04:07:47;;;;;;;2.25;1.20;;;;;;;13.36;75.64;96442.56;4913341;29;20052;-80
2023/05/11 04:10:14;;;;;;;0.93;0.85;;;;;;;13.29;75.34;96447.00;4932609;23;20135;-75
2023/05/11 04:12:42;;;;;;;2.40;1.23;;;;;;;13.25;78.09;96445.75;4902079;29;20084;-77
2023/05/11 04:15:10;;;;;;;1.30;1.05;;;;;;;13.25;78.84;96440.50;4898588;29;20056;-76
2023/05/11 04:17:39;;;;;;;1.52;0.95;;;;;;;13.24;78.02;96444.16;4908152;29;20056;-76
2023/05/11 04:20:08;;;;;;;1.20;1.10;;;;;;;13.24;80.61;96441.53;4901194;29;20056;-76
2023/05/11 04:22:35;;;;;;;2.13;1.30;;;;;;;13.25;79.44;96440.50;4904882;29;20108;-76
2023/05/11 04:25:03;;;;;;;2.25;1.40;;;;;;;13.20;78.35;96447.16;4908199;29;20087;-75
2023/05/11 04:27:32;;;;;;;1.05;1.00;;;;;;;13.22;80.27;96446.97;4897361;29;20053;-76
2023/05/11 04:30:00;;;;;;;1.40;1.30;;;;;;;13.28;81.79;96455.84;4889059;29;20630;-77
2023/05/11 04:32:29;;;;;;;1.17;1.00;;;;;;;13.29;81.12;96455.66;4878562;29;20053;-78
2023/05/11 04:34:58;;;;;;;3.15;1.48;;;;;;;13.31;80.77;96455.47;4877656;29;20523;-76
2023/05/11 04:37:25;;;;;;;3.78;1.40;;;;;;;13.31;81.14;96451.03;4877993;29;20527;-76
2023/05/11 04:39:53;;;;;;;1.65;1.40;;;;;;;13.31;81.44;96445.78;4878660;29;20063;-77
2023/05/11 04:42:20;;;;;;;1.58;1.25;;;;;;;13.33;81.48;96454.25;4879602;29;20056;-76
2023/05/11 04:44:48;;;;;;;3.00;1.60;;;;;;;13.32;81.15;96455.25;4879597;29;20144;-76
2023/05/11 04:47:16;;;;;;;1.48;1.10;;;;;;;13.33;81.09;96453.44;4880382;29;20139;-78
2023/05/11 04:49:43;;;;;;;6.03;1.60;;;;;;;13.34;81.41;96463.72;4879560;29;20151;-78
2023/05/11 04:52:12;;;;;;;1.10;1.10;;;;;;;13.32;79.54;96459.72;4880237;29;20057;-78
2023/05/11 04:54:40;;;;;;;3.00;1.85;;;;;;;13.28;79.98;96458.47;4880092;29;20049;-78
2023/05/11 04:57:08;;;;;;;1.52;1.40;;;;;;;13.29;80.90;96470.56;4879356;29;20055;-76
2023/05/11 04:59:35;;;;;;;1.40;1.30;;;;;;;13.31;80.95;96465.94;4879759;29;20127;-76
2023/05/11 05:02:03;;;;;;;2.10;1.52;;;;;;;13.26;79.01;96470.94;4879376;29;20060;-76
2023/05/11 05:04:30;;;;;;;1.90;1.67;;;;;;;13.24;80.67;96465.09;4879442;29;20051;-76
2023/05/11 05:07:01;;;;;;;1.92;1.38;;;;;;;13.26;80.75;96468.34;4886131;29;20052;-77
2023/05/11 05:09:30;;;;;;;2.05;1.90;;;;;;;13.25;81.04;96475.41;4891088;29;20076;-76
2023/05/11 05:11:58;;;;;;;2.45;1.52;;;;;;;13.25;79.89;96464.91;4886644;29;20059;-79
2023/05/11 05:14:26;;;;;;;5.00;2.63;;;;;;;13.25;80.81;96464.09;4878926;29;20060;-77
2023/05/11 05:16:54;;;;;;;9.82;5.88;;;;;;;13.26;80.47;96463.09;4879349;29;20061;-76
2023/05/11 05:19:21;;;;;;;5.00;2.72;;;;;;;13.24;78.88;96468.53;4878946;29;20136;-76
2023/05/11 05:21:49;;;;;;;7.97;5.05;;;;;;;13.24;80.21;96471.16;4878862;29;20063;-76
2023/05/11 05:24:16;;;;;;;2.72;2.08;;;;;;;13.25;79.03;96469.31;4878659;29;20056;-76
2023/05/11 05:26:45;;;;;;;2.55;1.80;;;;;;;13.25;79.14;96466.72;4879269;29;20052;-76
2023/05/11 05:29:13;;;;;;;2.95;1.95;;;;;;;13.23;79.14;96473.97;4878825;29;20057;-76
2023/05/11 05:31:40;;;;;;;3.35;1.98;;;;;;;13.23;79.97;96473.97;4879037;29;20056;-77
2023/05/11 05:34:07;;;;;;;3.35;1.92;;;;;;;13.23;79.94;96476.56;4878298;29;20056;-76
2023/05/11 05:36:35;;;;;;;2.00;1.73;;;;;;;13.20;80.07;96483.81;4878763;29;20053;-76
2023/05/11 05:39:07;;;;;;;5.55;2.65;;;;;;;13.17;80.58;96481.63;4878596;29;20506;-76
2023/05/11 05:41:35;;;;;;;2.65;1.90;;;;;;;13.11;78.19;96473.75;4878803;29;20080;-76
2023/05/11 05:44:04;;;;;;;2.33;1.45;;;;;;;13.04;77.64;96481.63;4878125;29;20076;-78
2023/05/11 05:46:32;;;;;;;4.25;1.30;;;;;;;13.02;77.56;96477.59;4878414;29;20049;-76
2023/05/11 05:48:59;;;;;;;3.58;2.15;;;;;;;13.01;77.71;96479.41;4878258;29;20485;-76
2023/05/11 05:51:27;;;;;;;2.45;1.67;;;;;;;13.02;78.92;96478.38;4878198;29;20053;-76
2023/05/11 05:53:55;;;;;;;4.50;2.05;;;;;;;13.06;79.62;96476.97;4878056;29;20309;-76
2023/05/11 05:56:23;;;;;;;2.58;2.20;;;;;;;13.08;80.45;96477.59;4878531;29;20049;-76
2023/05/11 05:58:50;;;;;;;3.33;2.30;;;;;;;13.10;80.91;96472.97;4878726;29;20096;-76
2023/05/11 06:01:20;;;;;;;4.00;2.38;;;;;;;13.13;82.22;96475.16;4878737;29;20053;-76
2023/05/11 06:03:50;;;;;;;4.03;2.25;;;;;;;13.16;82.02;96480.03;4877970;29;20132;-76
2023/05/11 06:06:18;;;;;;;1.88;1.65;;;;;;;13.14;79.59;96479.41;4878487;29;20049;-76
2023/05/11 06:08:46;;;;;;;3.22;2.70;;;;;;;13.12;81.38;96484.06;4878462;29;20049;-76
2023/05/11 06:11:14;;;;;;;2.20;2.00;;;;;;;13.13;79.79;96488.25;4877994;29;20160;-76
2023/05/11 06:13:42;;;;;;;5.13;2.30;;;;;;;13.13;80.57;96484.84;4877889;29;20049;-76
2023/05/11 06:16:09;;;;;;;3.63;2.47;;;;;;;13.16;81.45;96481.81;4878052;29;20191;-77
2023/05/11 06:18:38;;;;;;;4.78;3.13;;;;;;;13.17;82.01;96486.88;4878089;29;20132;-77
2023/05/11 06:21:06;;;;;;;2.45;2.00;;;;;;;13.18;81.27;96492.91;4877919;29;20053;-77
2023/05/11 06:23:33;;;;;;;3.15;2.38;;;;;;;13.18;81.43;96478.00;4877913;29;20092;-77
2023/05/11 06:26:01;;;;;;;4.25;2.35;;;;;;;13.19;80.20;96484.84;4881495;29;20057;-77
2023/05/11 06:28:29;;;;;;;2.58;2.15;;;;;;;13.16;79.37;96489.66;4881368;29;20424;-77
2023/05/11 06:30:57;;;;;;;4.25;2.97;;;;;;;13.17;80.32;96486.06;4881173;29;20426;-77
2023/05/11 06:33:25;;;;;;;4.50;2.53;;;;;;;13.22;80.53;96494.13;4881224;29;20053;-77
2023/05/11 06:35:54;;;;;;;3.45;2.40;;;;;;;13.20;79.24;96496.94;4881350;29;20084;-76
2023/05/11 06:38:22;;;;;;;4.55;3.10;;;;;;;13.19;80.53;96495.31;4881175;29;20057;-77
2023/05/11 06:40:52;;;;;;;3.83;2.65;;;;;;;13.22;81.11;96486.25;4881192;29;20139;-76
2023/05/11 06:43:19;;;;;;;2.83;2.20;;;;;;;13.24;79.81;96491.31;4880960;29;20095;-77
2023/05/11 06:45:47;;;;;;;3.35;2.40;;;;;;;13.24;79.42;96491.31;4880850;29;20053;-77
2023/05/11 06:48:15;;;;;;;4.93;3.15;;;;;;;13.24;80.06;96484.25;4880915;29;20056;-77
2023/05/11 06:50:42;;;;;;;4.53;2.70;;;;;;;13.20;78.29;96475.97;4881101;29;20073;-77
2023/05/11 06:53:11;;;;;;;3.17;2.88;;;;;;;13.19;79.13;96482.22;4881007;29;20505;-77
2023/05/11 06:55:38;;;;;;;4.13;3.28;;;;;;;13.20;79.40;96478.59;4880690;29;20140;-76
2023/05/11 06:58:06;;;;;;;3.08;2.50;;;;;;;13.21;78.72;96479.41;4881054;29;20053;-77
2023/05/11 07:00:34;;;;;;;5.03;3.30;;;;;;;13.23;79.76;96473.97;4880899;29;20057;-77
2023/05/11 07:03:01;;;;;;;4.25;3.17;;;;;;;13.25;80.11;96479.81;4880793;29;20053;-77
2023/05/11 07:05:29;;;;;;;3.75;3.30;;;;;;;13.27;80.41;96475.16;4880541;29;20128;-77
2023/05/11 07:07:56;;;;;;;8.38;6.05;;;;;;;13.26;79.74;96484.06;4880989;29;20148;-77
2023/05/11 07:10:25;;;;;;;8.10;6.38;;;;;;;13.28;80.38;96482.03;4880250;29;20064;-77
2023/05/11 07:12:53;;;;;;;5.78;4.40;;;;;;;13.26;77.96;96478.81;4880580;29;20103;-77
2023/05/11 07:15:21;;;;;;;6.80;5.20;;;;;;;13.24;79.85;96481.63;4880432;29;20426;-77
2023/05/11 07:17:48;;;;;;;5.90;5.30;;;;;;;13.26;78.51;96484.06;4880692;29;20075;-77
2023/05/11 07:20:16;;;;;;;5.28;4.78;;;;;;;13.27;79.99;96486.47;4880598;29;20429;-77
2023/05/11 07:22:44;;;;;;;3.33;3.03;;;;;;;13.25;79.42;96485.03;4880539;29;20065;-76
2023/05/11 07:25:12;;;;;;;3.30;3.00;;;;;;;13.24;78.41;96486.88;4880144;29;20053;-77
2023/05/11 07:27:41;;;;;;;3.85;3.30;;;;;;;13.25;79.78;96491.13;4880624;29;20089;-77
2023/05/11 07:30:10;;;;;;;6.88;4.53;;;;;;;13.25;78.47;96483.25;4880556;29;20108;-78
2023/05/11 07:32:37;;;;;;;12.20;8.23;;;;;;;13.20;76.91;96486.44;4880215;29;20064;-77
2023/05/11 07:35:06;;;;;;;9.45;6.22;;;;;;;13.21;79.31;96487.28;4880195;29;20049;-77
2023/05/11 07:37:34;;;;;;;6.97;4.82;;;;;;;13.22;78.37;96482.84;4879357;29;20544;-76
2023/05/11 07:40:01;;;;;;;5.00;4.15;;;;;;;13.19;77.63;96484.84;4880244;29;20053;-76
2023/05/11 07:42:29;;;;;;;6.45;5.00;;;;;;;13.23;77.80;96484.44;4879830;29;20056;-77
2023/05/11 07:44:58;;;;;;;4.75;3.78;;;;;;;13.27;79.01;96490.88;4880065;29;20057;-76
2023/05/11 07:47:25;;;;;;;4.68;3.90;;;;;;;13.34;80.21;96494.38;4880069;29;20049;-76
2023/05/11 07:49:53;;;;;;;5.63;3.90;;;;;;;13.41;80.62;96487.31;4879910;29;20532;-77
2023/05/11 07:52:20;;;;;;;2.95;2.70;;;;;;;13.42;79.64;96488.91;4880193;29;20060;-77
2023/05/11 07:54:48;;;;;;;2.42;2.22;;;;;;;13.40;77.18;96493.53;4879817;29;20605;-76
2023/05/11 07:57:15;;;;;;;2.65;2.25;;;;;;;13.35;76.80;96488.91;4880000;29;20053;-77
2023/05/11 07:59:43;;;;;;;2.85;2.38;;;;;;;13.38;77.68;96482.44;4879945;29;20155;-77
2023/05/11 08:02:12;;;;;;;2.42;2.22;;;;;;;13.36;75.93;96487.13;4879868;29;20049;-76
2023/05/11 08:04:40;;;;;;;8.13;2.85;;;;;;;13.37;76.79;96486.09;4879579;29;20097;-77
2023/05/11 08:07:07;;;;;;;3.55;2.60;;;;;;;13.41;77.59;96483.88;4880239;29;20158;-77
2023/05/11 08:09:35;;;;;;;2.40;2.15;;;;;;;13.42;76.00;96488.91;4887708;29;20081;-77
2023/05/11 08:12:03;;;;;;;2.22;1.80;;;;;;;13.41;75.46;96482.06;4892939;29;20561;-77
2023/05/11 08:14:31;;;;;;;3.25;2.95;;;;;;;13.44;76.97;96481.66;4885388;29;20049;-77
2023/05/11 08:16:59;;;;;;;2.13;1.98;;;;;;;13.49;76.88;96479.25;4880378;29;20057;-77
2023/05/11 08:19:28;;;;;;;2.63;1.60;;;;;;;13.52;76.52;96485.88;4880057;29;20484;-77
2023/05/11 08:21:56;;;;;;;2.78;2.58;;;;;;;13.53;75.72;96477.81;4880089;29;20057;-76
2023/05/11 08:24:23;;;;;;;2.22;2.03;;;;;;;13.52;74.23;96480.66;4879512;29;20067;-77
2023/05/11 08:26:51;;;;;;;2.03;1.92;;;;;;;13.47;74.27;96476.03;4879594;29;20425;-77
2023/05/11 08:29:18;;;;;;;2.55;2.00;;;;;;;13.47;74.37;96481.25;4879597;29;20532;-76
2023/05/11 08:31:46;;;;;;;1.95;1.42;;;;;;;13.50;74.32;96486.09;4879501;29;20059;-77
2023/05/11 08:34:14;;;;;;;1.80;1.70;;;;;;;13.57;75.38;96486.88;4879313;29;20057;-77
2023/05/11 08:36:48;;;;;;;1.33;1.23;;;;;;;13.59;75.01;96481.44;4879743;29;20045;-76
2023/05/11 08:39:16;;;;;;;2.58;2.08;;;;;;;13.63;76.41;96479.22;4879671;29;20137;-76
2023/05/11 08:42:05;;;;;;;1.63;1.52;;;;;;;13.64;75.34;96486.88;4879264;29;20092;-76
2023/05/11 08:44:36;;;;;;;2.17;1.98;;;;;;;13.67;76.75;96485.69;4879303;29;20140;-77
2023/05/11 08:47:05;;;;;;;2.83;2.10;;;;;;;13.71;76.58;96492.09;4879238;29;20060;-77
2023/05/11 08:49:50;;;;;;;1.83;1.65;;;;;;;13.75;75.71;96488.91;4879279;29;20061;-77
2023/05/11 08:52:19;;;;;;;1.45;1.33;;;;;;;13.77;75.01;96483.44;4879445;29;20486;-77
2023/05/11 08:54:47;;;;;;;4.30;2.20;;;;;;;13.81;76.64;96484.63;4878698;29;20063;-76
2023/05/11 08:57:15;;;;;;;2.53;2.30;;;;;;;13.80;74.02;96483.84;4879324;29;20057;-77
2023/05/11 08:59:45;;;;;;;3.10;2.17;;;;;;;13.76;73.92;96484.44;4879202;29;20061;-77
2023/05/11 09:02:15;;;;;;;2.65;2.30;;;;;;;13.76;75.02;96489.69;4880846;29;20052;-77
2023/05/11 09:04:44;;;;;;;3.13;1.70;;;;;;;13.73;74.97;96479.59;4887094;29;20087;-77
2023/05/11 09:07:16;;;;;;;2.17;1.98;;;;;;;13.68;75.54;96482.84;4889808;29;20088;-77
2023/05/11 09:09:47;;;;;;;2.30;2.13;;;;;;;13.64;74.38;96479.00;4892715;29;20053;-77
2023/05/11 09:12:15;;;;;;;1.95;1.85;;;;;;;13.61;75.48;96482.03;4880196;29;20083;-77
2023/05/11 09:14:43;;;;;;;1.35;1.10;;;;;;;13.56;73.77;96484.47;4878817;29;20053;-77
2023/05/11 09:17:11;;;;;;;1.27;1.10;;;;;;;13.52;73.07;96484.06;4879077;29;20049;-77
2023/05/11 09:19:57;;;;;;;2.28;1.80;;;;;;;13.53;73.65;96490.09;4878640;29;20057;-77
2023/05/11 09:22:24;;;;;;;2.55;2.10;;;;;;;13.51;73.50;96482.47;4879146;29;20593;-77
2023/05/11 09:24:57;;;;;;;2.00;1.50;;;;;;;13.52;74.62;96489.31;4878883;29;20558;-77
2023/05/11 09:27:25;;;;;;;2.03;1.50;;;;;;;13.47;73.50;96483.06;4878829;29;20056;-77
2023/05/11 09:29:54;;;;;;;2.67;1.80;;;;;;;13.43;75.23;96482.66;4878538;29;20056;-77
2023/05/11 09:32:21;;;;;;;2.60;1.67;;;;;;;13.42;75.19;96488.09;4878653;29;20522;-77
2023/05/11 09:34:49;;;;;;;2.78;1.50;;;;;;;13.37;73.50;96481.66;4878463;29;20064;-76
2023/05/11 09:37:18;;;;;;;3.30;1.45;;;;;;;13.35;74.31;96483.66;4878593;29;20057;-77
2023/05/11 09:39:45;;;;;;;1.45;1.30;;;;;;;13.36;73.69;96480.06;4878416;29;20084;-77
2023/05/11 09:42:34;;;;;;;2.38;2.10;;;;;;;13.37;73.67;96478.22;4878369;29;20131;-77
2023/05/11 09:45:02;;;;;;;2.97;2.10;;;;;;;13.38;73.47;96482.44;4878363;29;20063;-77
2023/05/11 09:47:38;;;;;;;2.28;1.30;;;;;;;13.42;75.27;96477.63;4878820;29;20509;-77
2023/05/11 09:50:16;;;;;;;3.72;1.30;;;;;;;13.41;72.70;96487.31;4878436;29;20056;-77
2023/05/11 09:52:51;;;;;;;0.90;0.90;;;;;;;13.43;73.83;96482.66;4878733;29;20117;-77
2023/05/11 09:55:19;;;;;;;2.75;1.30;;;;;;;13.48;74.53;96487.31;4881123;29;20502;-77
2023/05/11 09:57:54;;;;;;;2.75;1.48;;;;;;;13.55;77.20;96493.34;4878554;29;20425;-76
2023/05/11 10:00:24;;;;;;;2.50;1.50;;;;;;;13.61;76.59;96487.28;4881039;29;20053;-76
2023/05/11 10:03:02;;;;;;;2.08;0.80;;;;;;;13.63;73.04;96490.50;4881892;29;20057;-77
2023/05/11 10:05:31;;;;;;;0.73;0.50;;;;;;;13.59;72.65;96484.06;4881763;29;20125;-76
2023/05/11 10:08:00;;;;;;;1.35;0.80;;;;;;;13.54;72.38;96479.44;4882046;29;20061;-77
2023/05/11 10:10:29;;;;;;;4.15;1.15;;;;;;;13.52;73.63;96484.06;4931775;23;20052;-82
2023/05/11 10:13:00;;;;;;;0.95;0.90;;;;;;;13.53;72.20;96484.88;4948092;29;20051;-81
2023/05/11 10:15:29;;;;;;;3.10;1.13;;;;;;;13.50;72.31;96483.47;4947296;29;20056;-80
2023/05/11 10:18:00;;;;;;;1.70;1.20;;;;;;;13.50;72.35;96480.03;4947915;29;20087;-83
2023/05/11 10:20:27;;;;;;;1.17;1.08;;;;;;;13.54;73.62;96476.81;4938743;29;20052;-80
2023/05/11 10:22:55;;;;;;;1.45;1.10;;;;;;;13.64;74.26;96475.59;4928508;29;20485;-82
2023/05/11 10:25:25;;;;;;;1.85;0.90;;;;;;;13.67;72.75;96475.19;4927328;29;20058;-81
2023/05/11 10:27:54;;;;;;;0.90;0.90;;;;;;;13.59;72.30;96484.84;4926800;29;20154;-84
2023/05/11 10:30:23;;;;;;;1.05;0.90;;;;;;;13.55;72.80;96469.75;4927914;29;20080;-79
2023/05/11 10:32:52;;;;;;;0.90;0.90;;;;;;;13.55;72.94;96467.94;4928103;29;20048;-80
2023/05/11 10:35:20;;;;;;;2.35;1.45;;;;;;;13.63;74.39;96474.00;4926364;29;20116;-82
2023/05/11 10:37:48;;;;;;;1.45;0.80;;;;;;;13.71;74.71;96466.72;4923077;29;20058;-85
2023/05/11 10:40:16;;;;;;;2.17;1.27;;;;;;;13.82;75.81;96467.91;4927747;29;20055;-82
2023/05/11 10:43:04;;;;;;;1.00;1.00;;;;;;;13.88;73.88;96461.03;4927480;29;20518;-85
2023/05/11 10:45:39;;;;;;;1.58;1.48;;;;;;;13.94;76.61;96462.81;4929054;29;20072;-83
2023/05/11 10:48:34;;;;;;;1.60;1.30;;;;;;;13.99;77.38;96463.84;4929865;29;20120;-82
2023/05/11 10:51:17;;;;;;;1.95;1.50;;;;;;;14.02;76.79;96460.78;4929425;29;20452;-81
2023/05/11 10:53:52;;;;;;;;;;;;;;;14.01;74.31;96461.81;4929983;29;20054;-84
2023/05/11 10:56:35;;;;;;;1.33;1.23;;;;;;;13.96;75.18;96455.56;4929853;29;19930;-83
2023/05/11 10:59:37;;;;;;;1.63;0.95;;;;;;;13.90;72.42;96453.75;4925742;29;20048;-81
2023/05/11 11:02:06;;;;;;;0.82;0.82;;;;;;;13.81;72.37;96459.22;4925274;29;20060;-82
2023/05/11 11:04:45;;;;;;;5.97;3.33;;;;;;;13.83;75.27;96447.72;4925416;29;20063;-81
2023/05/11 11:07:16;;;;;;;4.95;2.80;;;;;;;13.84;74.49;96460.66;4926232;29;20139;-83
2023/05/11 11:09:52;;;;;;;1.95;1.52;;;;;;;13.87;71.62;96452.34;4927647;29;20115;-83
2023/05/11 11:12:22;;;;;;;1.50;1.40;;;;;;;13.89;72.60;96452.16;4928082;29;20477;-81
2023/05/11 11:14:54;;;;;;;1.83;1.20;;;;;;;13.95;72.87;96452.13;4928624;29;20075;-84
2023/05/11 11:17:26;;;;;;;0.80;0.80;;;;;;;13.99;71.74;96452.50;4927927;29;20058;-80
2023/05/11 11:19:54;;;;;;;0.80;0.80;;;;;;;13.97;72.05;96455.38;4928807;29;20064;-82
2023/05/11 11:22:45;;;;;;;2.85;1.67;;;;;;;14.04;74.29;96451.88;4928320;29;20048;-82
2023/05/11 11:25:15;;;;;;;1.88;1.42;;;;;;;14.08;74.30;96453.09;4928185;29;20513;-82
2023/05/11 11:27:58;;;;;;;1.10;1.00;;;;;;;14.12;75.28;96452.47;4927465;29;20052;-84
2023/05/11 11:30:27;;;;;;;0.80;0.80;;;;;;;14.12;73.58;96446.41;4926926;29;20532;-81
2023/05/11 11:33:33;;;;;;;1.33;0.80;;;;;;;14.10;70.01;96444.03;4927494;29;20063;-82
2023/05/11 11:36:01;;;;;;;0.93;0.52;;;;;;;14.05;73.20;96448.28;4925351;29;20142;-78
2023/05/11 11:38:31;;;;;;;0.93;0.70;;;;;;;14.05;73.23;96454.31;4924915;29;20581;-79
2023/05/11 11:40:59;;;;;;;1.58;1.17;;;;;;;14.07;74.24;96451.50;4924761;29;20120;-79
2023/05/11 11:43:45;;;;;;;1.00;1.00;;;;;;;14.07;72.68;96456.75;4924766;29;20515;-80
2023/05/11 11:46:26;;;;;;;3.70;1.80;;;;;;;14.07;75.86;96452.28;4924799;29;20052;-81
2023/05/11 11:49:06;;;;;;;3.13;1.35;;;;;;;14.07;72.74;96449.66;4923788;29;20087;-80